Time;durP1;ratioP1;P1;durP2;ratioP2;P2;SDS_P1;SDS_P2;PMS_P1;PMS_P2;Temp;Humidity;BMP_temperature;BMP_pressure;BME280_temperature;BME280_humidity;BME280_pressure;Samples;Min_cycle;Max_cycle;Signal;HPM_P1;HPM_P2
2023/07/10 00:01:27;;;;;;;8.87;7.93;;;20.20;99.90;;;;;;4993701;28;20548;-60
2023/07/10 00:03:56;;;;;;;8.97;7.93;;;20.20;99.90;;;;;;4992757;28;20492;-61
2023/07/10 00:06:24;;;;;;;12.53;8.70;;;20.20;99.90;;;;;;4988471;28;20461;-60
2023/07/10 00:08:52;;;;;;;8.90;8.10;;;20.10;99.90;;;;;;4992983;28;20473;-61
2023/07/10 00:11:26;;;;;;;8.13;7.33;;;20.10;99.90;;;;;;4994693;28;25666;-60
2023/07/10 00:13:55;;;;;;;10.00;8.07;;;20.10;99.90;;;;;;4995686;28;20579;-60
2023/07/10 00:16:25;;;;;;;9.20;8.30;;;20.10;99.90;;;;;;4996814;28;20499;-61
2023/07/10 00:18:53;;;;;;;10.90;8.03;;;20.10;99.90;;;;;;4994272;28;20479;-60
2023/07/10 00:21:21;;;;;;;11.07;8.07;;;20.00;99.90;;;;;;4994870;28;20484;-61
2023/07/10 00:23:49;;;;;;;9.13;8.20;;;20.00;99.90;;;;;;4980487;28;20507;-58
2023/07/10 00:26:21;;;;;;;10.80;8.37;;;20.00;99.90;;;;;;4984851;28;20556;-60
2023/07/10 00:28:51;;;;;;;11.50;8.17;;;20.00;99.90;;;;;;4986427;28;20644;-60
2023/07/10 00:31:19;;;;;;;9.23;8.20;;;19.90;99.90;;;;;;4988539;28;20487;-59
2023/07/10 00:33:49;;;;;;;8.37;7.57;;;19.90;99.90;;;;;;4990193;28;20508;-60
2023/07/10 00:36:28;;;;;;;9.73;8.50;;;19.90;99.90;;;;;;4988434;28;20570;-60
2023/07/10 00:38:56;;;;;;;8.57;7.77;;;20.00;99.90;;;;;;4988373;28;20955;-60
2023/07/10 00:41:26;;;;;;;12.70;8.50;;;20.00;99.90;;;;;;4985827;28;20539;-58
2023/07/10 00:44:00;;;;;;;9.13;8.03;;;20.00;99.90;;;;;;4994859;28;20600;-60
2023/07/10 00:46:34;;;;;;;9.30;8.33;;;19.90;99.90;;;;;;4993765;28;20928;-60
2023/07/10 00:49:08;;;;;;;9.27;8.40;;;19.90;99.90;;;;;;4992755;28;20546;-61
2023/07/10 00:51:41;;;;;;;11.27;8.20;;;19.90;99.90;;;;;;4995232;28;20464;-61
2023/07/10 00:54:27;;;;;;;9.27;7.80;;;19.90;99.90;;;;;;4995028;28;20610;-60
2023/07/10 00:56:57;;;;;;;9.47;8.57;;;19.90;99.90;;;;;;4990362;28;20535;-60
2023/07/10 00:59:27;;;;;;;9.33;8.47;;;19.90;99.90;;;;;;4994275;28;20952;-60
2023/07/10 01:02:23;;;;;;;10.13;8.20;;;20.00;99.90;;;;;;4995054;28;20570;-60
2023/07/10 01:04:59;;;;;;;9.33;8.43;;;20.00;99.90;;;;;;4987976;28;20467;-60
2023/07/10 01:07:32;;;;;;;8.90;8.10;;;20.10;99.90;;;;;;4997239;28;20492;-60
2023/07/10 01:10:02;;;;;;;9.47;8.47;;;20.00;99.90;;;;;;4997860;28;20476;-60
2023/07/10 01:12:31;;;;;;;9.73;8.83;;;20.00;99.90;;;;;;4999736;28;20583;-61
2023/07/10 01:15:00;;;;;;;9.90;8.90;;;19.90;99.90;;;;;;4994722;28;20476;-60
2023/07/10 01:17:29;;;;;;;10.83;8.47;;;19.90;99.90;;;;;;4993430;28;20847;-61
2023/07/10 01:20:01;;;;;;;9.63;8.57;;;19.90;99.90;;;;;;4998587;28;20530;-60
2023/07/10 01:22:30;;;;;;;8.83;8.03;;;19.90;99.90;;;;;;4997851;28;20530;-60
2023/07/10 01:24:59;;;;;;;11.13;8.80;;;19.90;99.90;;;;;;4996903;28;20474;-61
2023/07/10 01:27:29;;;;;;;9.00;8.30;;;19.90;99.90;;;;;;4995551;28;21024;-61
2023/07/10 01:30:03;;;;;;;8.23;7.47;;;19.90;99.90;;;;;;4995089;28;20846;-61
2023/07/10 01:32:31;;;;;;;9.33;8.40;;;20.00;99.90;;;;;;4997074;28;20495;-61
2023/07/10 01:35:02;;;;;;;9.57;8.57;;;20.00;99.90;;;;;;4995302;28;20897;-58
2023/07/10 01:37:32;;;;;;;9.03;7.70;;;20.00;99.90;;;;;;4996758;28;20489;-60
2023/07/10 01:40:00;;;;;;;9.27;8.37;;;20.00;99.90;;;;;;4992344;28;21164;-60
2023/07/10 01:42:28;;;;;;;10.20;8.47;;;19.90;99.90;;;;;;4992987;28;20634;-60
2023/07/10 01:44:56;;;;;;;10.13;8.30;;;19.90;99.90;;;;;;4991296;28;21143;-61
2023/07/10 01:47:24;;;;;;;10.30;8.30;;;19.90;99.90;;;;;;4997937;28;21012;-61
2023/07/10 01:49:55;;;;;;;8.57;7.67;;;19.90;99.90;;;;;;4998536;28;20511;-61
2023/07/10 01:52:24;;;;;;;9.90;8.60;;;19.90;99.90;;;;;;4994774;28;20902;-61
2023/07/10 01:54:54;;;;;;;9.33;8.43;;;19.90;99.90;;;;;;4992627;28;20971;-60
2023/07/10 01:57:25;;;;;;;11.03;8.10;;;19.90;99.90;;;;;;4995729;28;20539;-62
2023/07/10 01:59:54;;;;;;;9.43;8.53;;;19.90;99.90;;;;;;4997510;28;20505;-60
2023/07/10 02:02:22;;;;;;;9.70;8.00;;;19.90;99.90;;;;;;5000048;28;20562;-60
2023/07/10 02:04:50;;;;;;;9.40;8.00;;;19.90;99.90;;;;;;4996800;28;20503;-61
2023/07/10 02:07:18;;;;;;;8.63;7.90;;;19.90;99.90;;;;;;4995801;28;20505;-59
2023/07/10 02:09:46;;;;;;;8.93;8.13;;;19.90;99.90;;;;;;4997218;28;20505;-61
2023/07/10 02:12:15;;;;;;;9.87;8.77;;;19.90;99.90;;;;;;4991949;28;21068;-60
2023/07/10 02:14:45;;;;;;;9.33;8.43;;;19.90;99.90;;;;;;4998173;28;20571;-60
2023/07/10 02:17:13;;;;;;;9.37;8.47;;;19.90;99.90;;;;;;4991524;28;20523;-60
2023/07/10 02:19:41;;;;;;;9.73;8.50;;;19.90;99.90;;;;;;4995188;28;20497;-61
2023/07/10 02:22:09;;;;;;;11.63;8.70;;;19.90;99.90;;;;;;4995410;28;20496;-60
2023/07/10 02:24:37;;;;;;;9.67;8.73;;;19.90;99.90;;;;;;4995185;28;20522;-60
2023/07/10 02:27:06;;;;;;;9.57;8.70;;;19.90;99.90;;;;;;4996831;28;20499;-59
2023/07/10 02:29:35;;;;;;;9.70;8.77;;;19.90;99.90;;;;;;4992927;28;20477;-60
2023/07/10 02:32:04;;;;;;;10.87;8.80;;;19.90;99.90;;;;;;4997010;28;20531;-61
2023/07/10 02:34:32;;;;;;;8.67;7.97;;;19.80;99.90;;;;;;4995099;28;20502;-61
2023/07/10 02:37:00;;;;;;;8.93;8.13;;;19.90;99.90;;;;;;4993861;28;20923;-60
2023/07/10 02:39:28;;;;;;;9.20;8.30;;;19.90;99.90;;;;;;4989244;28;20520;-61
2023/07/10 02:41:56;;;;;;;9.90;9.10;;;19.80;99.90;;;;;;4994028;28;20501;-60
2023/07/10 02:44:24;;;;;;;9.17;8.30;;;19.80;99.90;;;;;;4992875;28;20536;-61
2023/07/10 02:46:54;;;;;;;9.93;9.03;;;19.80;99.90;;;;;;5000422;28;20603;-60
2023/07/10 02:49:22;;;;;;;8.37;7.67;;;19.80;99.90;;;;;;4997877;28;20483;-61
2023/07/10 02:51:50;;;;;;;9.63;8.43;;;19.80;99.90;;;;;;4999927;28;20515;-61
2023/07/10 02:54:18;;;;;;;8.50;7.70;;;19.80;99.90;;;;;;4998729;28;20551;-62
2023/07/10 02:56:46;;;;;;;8.60;7.80;;;19.80;99.90;;;;;;4990577;28;20484;-62
2023/07/10 02:59:14;;;;;;;9.50;8.60;;;19.80;99.90;;;;;;4997204;28;20493;-62
2023/07/10 03:01:42;;;;;;;9.63;8.83;;;19.80;99.90;;;;;;4997020;28;20479;-62
2023/07/10 03:04:11;;;;;;;9.30;8.60;;;19.90;99.90;;;;;;4996548;28;20863;-61
2023/07/10 03:06:39;;;;;;;8.70;8.03;;;19.80;99.90;;;;;;4987758;28;20919;-61
2023/07/10 03:09:07;;;;;;;9.23;8.37;;;19.80;99.90;;;;;;4996339;28;20556;-61
2023/07/10 03:11:35;;;;;;;8.50;7.90;;;19.80;99.90;;;;;;4992378;28;20473;-61
2023/07/10 03:14:03;;;;;;;10.30;9.40;;;19.90;99.90;;;;;;4995040;28;20493;-61
2023/07/10 03:16:31;;;;;;;10.07;9.17;;;19.90;99.90;;;;;;4992336;28;20860;-61
2023/07/10 03:18:59;;;;;;;10.40;9.50;;;19.90;99.90;;;;;;4998336;28;20570;-61
2023/07/10 03:21:29;;;;;;;10.70;9.80;;;19.90;99.90;;;;;;4994285;28;20547;-61
2023/07/10 03:23:58;;;;;;;11.13;10.13;;;19.90;99.90;;;;;;4996008;28;20492;-60
2023/07/10 03:26:26;;;;;;;11.00;10.00;;;19.90;99.90;;;;;;4992320;28;20592;-61
2023/07/10 03:29:04;;;;;;;11.47;10.47;;;19.90;99.90;;;;;;4995682;28;20552;-62
2023/07/10 03:31:32;;;;;;;10.93;10.03;;;19.90;99.90;;;;;;4994136;28;20484;-60
2023/07/10 03:34:01;;;;;;;10.47;9.60;;;19.90;99.90;;;;;;4998639;28;20524;-60
2023/07/10 03:36:30;;;;;;;11.40;10.50;;;19.90;99.90;;;;;;4999550;28;20948;-60
2023/07/10 03:38:59;;;;;;;12.07;10.87;;;19.90;99.90;;;;;;4999998;28;20500;-62
2023/07/10 03:41:27;;;;;;;12.07;11.00;;;19.80;99.90;;;;;;4988331;28;21063;-61
2023/07/10 03:43:55;;;;;;;12.63;11.43;;;19.80;99.90;;;;;;4988015;28;20564;-61
2023/07/10 03:46:23;;;;;;;12.80;11.60;;;19.80;99.90;;;;;;4993048;28;20464;-62
2023/07/10 03:48:52;;;;;;;12.13;11.03;;;19.80;99.90;;;;;;4995336;28;20480;-61
2023/07/10 03:51:20;;;;;;;11.47;10.60;;;19.80;99.90;;;;;;4999517;28;20848;-61
2023/07/10 03:53:50;;;;;;;11.87;10.97;;;19.80;99.90;;;;;;4999433;28;20627;-61
2023/07/10 03:56:18;;;;;;;11.83;10.83;;;19.80;99.90;;;;;;4984737;28;20483;-61
2023/07/10 03:58:46;;;;;;;13.07;11.73;;;19.80;99.90;;;;;;4987759;28;20851;-61
2023/07/10 04:01:15;;;;;;;11.90;10.90;;;19.80;99.90;;;;;;4989763;28;20968;-60
2023/07/10 04:03:44;;;;;;;13.10;11.80;;;19.80;99.90;;;;;;4995009;28;20606;-61
2023/07/10 04:06:15;;;;;;;12.90;11.90;;;19.80;99.90;;;;;;4991696;28;20479;-61
2023/07/10 04:08:45;;;;;;;12.50;11.33;;;19.70;99.90;;;;;;4989326;28;20488;-61
2023/07/10 04:11:16;;;;;;;13.83;12.63;;;19.70;99.90;;;;;;4989417;28;20473;-61
2023/07/10 04:13:44;;;;;;;13.80;12.70;;;19.70;99.90;;;;;;4997061;28;20527;-61
2023/07/10 04:16:15;;;;;;;13.13;12.03;;;19.70;99.90;;;;;;4985521;28;20499;-61
2023/07/10 04:18:44;;;;;;;12.77;11.67;;;19.60;99.90;;;;;;4994144;28;20911;-61
2023/07/10 04:21:16;;;;;;;13.27;12.07;;;19.60;99.90;;;;;;4992399;28;20499;-61
2023/07/10 04:23:44;;;;;;;13.10;12.10;;;19.60;99.90;;;;;;4994140;28;20592;-60
2023/07/10 04:26:17;;;;;;;14.43;12.83;;;19.60;99.90;;;;;;4990677;28;20479;-61
2023/07/10 04:28:45;;;;;;;14.20;13.00;;;19.60;99.90;;;;;;4988623;28;20899;-61
2023/07/10 04:31:13;;;;;;;13.60;12.37;;;19.60;99.90;;;;;;4993740;28;21041;-61
2023/07/10 04:33:41;;;;;;;14.70;13.30;;;19.60;99.90;;;;;;4992576;28;20499;-61
2023/07/10 04:36:09;;;;;;;12.50;11.50;;;19.60;99.90;;;;;;4989461;28;20468;-60
2023/07/10 04:38:38;;;;;;;14.47;13.10;;;19.60;99.90;;;;;;4981739;28;21075;-61
2023/07/10 04:41:08;;;;;;;13.90;12.50;;;19.60;99.90;;;;;;4988732;28;20468;-60
2023/07/10 04:43:37;;;;;;;13.83;12.70;;;19.60;99.90;;;;;;4993561;28;20507;-61
2023/07/10 04:46:08;;;;;;;14.03;12.63;;;19.60;99.90;;;;;;4988598;28;20557;-61
2023/07/10 04:48:36;;;;;;;13.17;12.17;;;19.70;99.90;;;;;;4989676;28;20524;-61
2023/07/10 04:51:07;;;;;;;14.37;13.17;;;19.70;99.90;;;;;;4988870;28;20472;-61
2023/07/10 04:53:35;;;;;;;14.60;13.43;;;19.70;99.90;;;;;;4993393;28;20513;-61
2023/07/10 04:56:06;;;;;;;15.27;13.83;;;19.70;99.90;;;;;;4987010;28;20472;-61
2023/07/10 04:58:48;;;;;;;14.63;13.40;;;19.70;99.90;;;;;;4988541;28;20507;-62
2023/07/10 05:01:17;;;;;;;17.07;15.67;;;19.70;99.90;;;;;;4991190;28;20471;-61
2023/07/10 05:03:45;;;;;;;16.57;14.97;;;19.80;99.90;;;;;;4995798;28;21446;-61
2023/07/10 05:06:13;;;;;;;17.30;15.67;;;19.80;99.90;;;;;;4994990;28;20896;-61
2023/07/10 05:08:41;;;;;;;15.73;14.37;;;19.80;99.90;;;;;;4984888;28;20573;-63
2023/07/10 05:11:09;;;;;;;16.17;14.97;;;19.80;99.90;;;;;;4989679;28;20568;-62
2023/07/10 05:13:37;;;;;;;15.93;14.53;;;19.80;99.90;;;;;;4994411;28;20495;-64
2023/07/10 05:16:07;;;;;;;15.63;14.30;;;19.90;99.90;;;;;;4985844;28;21233;-64
2023/07/10 05:18:35;;;;;;;15.03;13.80;;;19.90;99.90;;;;;;4993608;28;20499;-62
2023/07/10 05:21:04;;;;;;;15.10;13.80;;;19.90;99.90;;;;;;4991343;28;20941;-63
2023/07/10 05:23:32;;;;;;;15.30;14.03;;;19.90;99.90;;;;;;4977457;28;20582;-63
2023/07/10 05:26:04;;;;;;;14.17;12.97;;;19.90;99.90;;;;;;4981805;28;20894;-63
2023/07/10 05:28:32;;;;;;;14.87;13.73;;;19.90;99.90;;;;;;4988416;28;20488;-63
2023/07/10 05:31:03;;;;;;;15.10;13.90;;;19.90;99.90;;;;;;4990723;28;20487;-62
2023/07/10 05:33:32;;;;;;;13.87;12.57;;;20.00;99.90;;;;;;4987658;28;20519;-61
2023/07/10 05:36:02;;;;;;;13.53;12.43;;;20.00;99.90;;;;;;4963551;28;20479;-64
2023/07/10 05:38:32;;;;;;;13.83;12.57;;;20.10;99.90;;;;;;4976781;28;21140;-62
2023/07/10 05:41:00;;;;;;;14.70;13.60;;;20.10;99.90;;;;;;4965549;28;21033;-63
2023/07/10 05:43:29;;;;;;;14.00;12.90;;;20.10;99.90;;;;;;4980135;28;21045;-62
2023/07/10 05:45:57;;;;;;;14.83;13.43;;;20.30;99.90;;;;;;4982780;28;20475;-61
2023/07/10 05:48:26;;;;;;;16.73;15.33;;;20.30;99.90;;;;;;4995140;28;20572;-62
2023/07/10 05:50:56;;;;;;;16.60;15.10;;;20.40;99.90;;;;;;4985175;28;20571;-61
2023/07/10 05:53:25;;;;;;;15.23;14.00;;;20.40;99.90;;;;;;4986712;28;20500;-61
2023/07/10 05:55:55;;;;;;;14.70;13.50;;;20.50;99.90;;;;;;4993241;28;20560;-61
2023/07/10 05:58:24;;;;;;;15.40;14.10;;;20.60;99.90;;;;;;4982307;28;22902;-61
2023/07/10 06:00:56;;;;;;;14.90;13.70;;;20.60;99.90;;;;;;4983612;28;20585;-62
2023/07/10 06:03:24;;;;;;;13.03;12.03;;;20.70;99.90;;;;;;4982510;28;20483;-62
2023/07/10 06:05:59;;;;;;;14.93;13.70;;;20.70;99.90;;;;;;4992933;28;20479;-61
2023/07/10 06:08:28;;;;;;;15.40;13.97;;;20.80;99.90;;;;;;4990494;28;20577;-62
2023/07/10 06:10:57;;;;;;;13.30;12.30;;;20.80;99.90;;;;;;4996714;28;20465;-62
2023/07/10 06:13:25;;;;;;;15.43;14.17;;;20.90;99.90;;;;;;4987289;28;21014;-61
2023/07/10 06:15:55;;;;;;;15.23;13.77;;;20.90;99.90;;;;;;4983293;28;20557;-62
2023/07/10 06:18:24;;;;;;;14.53;13.27;;;20.90;99.90;;;;;;4981608;28;20503;-63
2023/07/10 06:20:53;;;;;;;13.80;12.60;;;21.00;99.90;;;;;;4988096;28;20602;-62
2023/07/10 06:23:23;;;;;;;13.97;12.80;;;21.00;99.90;;;;;;4987078;28;20500;-62
2023/07/10 06:25:51;;;;;;;13.87;12.57;;;21.00;99.90;;;;;;4995657;28;20495;-62
2023/07/10 06:28:20;;;;;;;14.47;13.30;;;21.00;99.90;;;;;;4990244;28;21139;-60
2023/07/10 06:30:55;;;;;;;14.47;13.37;;;21.00;99.90;;;;;;4970740;28;20474;-62
2023/07/10 06:33:24;;;;;;;14.73;13.50;;;20.90;99.90;;;;;;4989990;28;21900;-62
2023/07/10 06:35:52;;;;;;;17.40;16.00;;;20.80;99.90;;;;;;4987455;28;20499;-61
2023/07/10 06:38:21;;;;;;;17.60;16.27;;;20.80;99.90;;;;;;4986719;28;20537;-61
2023/07/10 06:40:50;;;;;;;18.03;16.73;;;20.70;99.90;;;;;;4996200;28;20571;-62
2023/07/10 06:43:20;;;;;;;18.87;17.23;;;20.70;99.90;;;;;;4991677;28;20542;-60
2023/07/10 06:45:48;;;;;;;18.37;16.80;;;20.60;99.90;;;;;;4984934;28;20480;-62
2023/07/10 06:48:17;;;;;;;19.43;17.73;;;20.60;99.90;;;;;;4988180;28;20567;-60
2023/07/10 06:50:47;;;;;;;20.23;18.50;;;20.60;99.90;;;;;;4992215;28;20464;-61
2023/07/10 06:53:15;;;;;;;18.63;17.20;;;20.50;99.90;;;;;;4988019;28;20492;-59
2023/07/10 06:55:59;;;;;;;20.40;18.40;;;20.50;99.90;;;;;;4981175;28;20555;-62
2023/07/10 06:58:28;;;;;;;19.90;18.30;;;20.40;99.90;;;;;;4992604;28;21048;-62
2023/07/10 07:00:56;;;;;;;20.10;18.20;;;20.40;99.90;;;;;;4988211;28;20488;-61
2023/07/10 07:03:25;;;;;;;18.23;16.80;;;20.40;99.90;;;;;;4989793;28;20466;-59
2023/07/10 07:05:54;;;;;;;19.37;17.67;;;20.40;99.90;;;;;;4985404;28;20469;-61
2023/07/10 07:08:23;;;;;;;18.70;17.20;;;20.40;99.90;;;;;;4977199;28;20587;-63
2023/07/10 07:10:53;;;;;;;20.43;18.83;;;20.40;99.90;;;;;;4986653;28;20462;-63
2023/07/10 07:13:22;;;;;;;19.73;18.23;;;20.50;99.90;;;;;;4979278;28;20587;-61
2023/07/10 07:15:51;;;;;;;19.70;18.10;;;20.50;99.90;;;;;;4988210;28;20547;-63
2023/07/10 07:18:20;;;;;;;19.13;17.63;;;20.50;99.90;;;;;;4988839;28;20499;-61
2023/07/10 07:20:49;;;;;;;20.40;18.60;;;20.40;99.90;;;;;;4990447;28;20496;-61
2023/07/10 07:23:17;;;;;;;19.63;17.90;;;20.50;99.90;;;;;;4981480;28;21590;-61
2023/07/10 07:25:45;;;;;;;19.77;18.07;;;20.40;99.90;;;;;;4983013;28;20586;-60
2023/07/10 07:28:14;;;;;;;18.17;16.87;;;20.50;99.90;;;;;;4985339;28;20577;-60
2023/07/10 07:30:47;;;;;;;18.03;16.53;;;20.50;99.90;;;;;;4989272;28;21085;-61
2023/07/10 07:33:18;;;;;;;17.67;15.97;;;20.60;99.90;;;;;;4986129;28;20577;-62
2023/07/10 07:35:46;;;;;;;16.43;15.07;;;20.70;99.90;;;;;;4989480;28;20496;-62
2023/07/10 07:38:15;;;;;;;16.23;14.93;;;20.80;99.90;;;;;;4979699;28;20520;-60
2023/07/10 07:40:43;;;;;;;13.80;12.70;;;20.80;99.90;;;;;;4987523;28;20492;-62
2023/07/10 07:43:11;;;;;;;14.03;12.93;;;20.90;99.90;;;;;;4984250;28;20496;-62
2023/07/10 07:45:39;;;;;;;12.70;11.50;;;21.00;99.90;;;;;;4989623;28;20468;-62
2023/07/10 07:48:09;;;;;;;12.67;11.57;;;21.10;99.90;;;;;;4992215;28;20571;-62
2023/07/10 07:50:37;;;;;;;11.20;10.20;;;21.20;99.90;;;;;;4991060;28;20483;-63
2023/07/10 07:53:05;;;;;;;11.17;10.10;;;21.30;99.90;;;;;;4991959;28;20573;-63
2023/07/10 07:55:33;;;;;;;10.87;9.97;;;21.30;99.90;;;;;;4987127;28;20501;-62
2023/07/10 07:58:01;;;;;;;10.40;9.40;;;21.30;99.90;;;;;;4983405;28;20516;-60
2023/07/10 08:00:29;;;;;;;9.33;8.50;;;21.30;99.90;;;;;;4984408;28;20531;-60
2023/07/10 08:02:57;;;;;;;9.67;8.87;;;21.30;99.90;;;;;;4985194;28;20500;-61
2023/07/10 08:05:27;;;;;;;9.13;8.43;;;21.40;99.90;;;;;;4981153;28;20556;-62
2023/07/10 08:08:04;;;;;;;8.80;8.10;;;21.30;99.90;;;;;;4990876;28;20845;-62
2023/07/10 08:10:34;;;;;;;9.17;8.37;;;21.30;99.90;;;;;;4990273;28;20505;-62
2023/07/10 08:13:04;;;;;;;9.50;8.70;;;21.20;99.90;;;;;;4979521;28;20488;-61
2023/07/10 08:15:32;;;;;;;8.80;8.00;;;21.10;99.90;;;;;;4984370;28;20749;-62
2023/07/10 08:18:00;;;;;;;9.17;8.50;;;21.10;99.90;;;;;;4991617;28;20543;-60
2023/07/10 08:20:30;;;;;;;8.57;7.87;;;21.10;99.90;;;;;;4989345;28;21138;-62
2023/07/10 08:22:58;;;;;;;9.93;8.93;;;21.00;99.90;;;;;;4985856;28;20523;-63
2023/07/10 08:25:26;;;;;;;10.90;9.53;;;21.10;99.90;;;;;;4984795;28;21230;-62
2023/07/10 08:27:55;;;;;;;10.80;9.67;;;21.00;99.90;;;;;;4987351;28;20499;-61
2023/07/10 08:30:23;;;;;;;11.07;9.97;;;21.00;99.90;;;;;;4992233;28;20479;-61
2023/07/10 08:32:51;;;;;;;9.43;8.63;;;21.10;99.90;;;;;;4990993;28;20485;-59
2023/07/10 08:35:19;;;;;;;11.10;10.23;;;21.00;99.90;;;;;;4988840;28;20464;-61
2023/07/10 08:37:49;;;;;;;11.30;10.30;;;21.10;99.90;;;;;;4989131;28;20512;-61
2023/07/10 08:40:27;;;;;;;10.20;9.20;;;21.10;99.90;;;;;;4977952;28;20572;-60
2023/07/10 08:42:55;;;;;;;11.90;10.80;;;21.10;99.90;;;;;;4989414;28;20504;-61
2023/07/10 08:45:35;;;;;;;11.60;10.60;;;21.10;99.90;;;;;;4994347;28;20520;-60
2023/07/10 08:48:20;;;;;;;11.83;10.27;;;21.00;99.90;;;;;;4986077;28;20906;-61
2023/07/10 08:50:49;;;;;;;11.67;10.57;;;21.00;99.90;;;;;;4981031;28;20556;-60
2023/07/10 08:53:24;;;;;;;12.00;9.83;;;21.00;99.90;;;;;;4987129;28;20511;-61
2023/07/10 08:56:01;;;;;;;11.20;10.20;;;21.10;99.90;;;;;;4978598;28;20479;-60
2023/07/10 08:58:34;;;;;;;11.00;9.87;;;21.10;99.90;;;;;;4988009;28;20483;-61
2023/07/10 09:01:05;;;;;;;10.63;9.53;;;21.20;99.90;;;;;;4989068;28;20528;-61
2023/07/10 09:03:39;;;;;;;11.83;10.83;;;21.30;99.90;;;;;;4989614;28;21005;-61
2023/07/10 09:06:18;;;;;;;11.60;9.40;;;21.40;99.90;;;;;;4990269;28;20467;-61
2023/07/10 09:08:50;;;;;;;9.77;8.87;;;21.50;99.90;;;;;;4988158;28;20488;-62
2023/07/10 09:11:19;;;;;;;13.63;10.23;;;21.50;99.90;;;;;;4980898;28;20476;-62
2023/07/10 09:13:52;;;;;;;13.30;10.80;;;21.40;99.90;;;;;;4989294;28;20515;-62
2023/07/10 09:16:23;;;;;;;12.30;9.57;;;21.40;99.90;;;;;;4994201;28;20950;-62
2023/07/10 09:18:54;;;;;;;13.23;10.67;;;21.40;99.90;;;;;;4985493;28;20488;-62
2023/07/10 09:21:29;;;;;;;8.77;7.97;;;21.50;99.90;;;;;;4990702;28;21148;-62
2023/07/10 09:23:58;;;;;;;8.17;6.83;;;21.60;99.90;;;;;;4992517;28;20578;-61
2023/07/10 09:26:29;;;;;;;8.40;7.23;;;21.80;99.90;;;;;;4974832;28;20475;-61
2023/07/10 09:29:18;;;;;;;6.40;5.80;;;21.90;99.90;;;;;;4988029;28;20558;-62
2023/07/10 09:31:54;;;;;;;5.87;5.30;;;22.00;99.90;;;;;;4995455;28;20983;-62
2023/07/10 09:34:24;;;;;;;6.90;5.23;;;22.20;99.90;;;;;;4991586;28;20904;-62
2023/07/10 09:36:54;;;;;;;6.00;5.60;;;22.30;99.90;;;;;;4991418;28;20484;-62
2023/07/10 09:39:27;;;;;;;5.90;5.30;;;22.40;99.90;;;;;;4991226;28;20519;-62
2023/07/10 09:41:58;;;;;;;6.40;5.80;;;22.50;99.90;;;;;;4993464;28;21021;-61
2023/07/10 09:44:34;;;;;;;7.17;5.80;;;22.60;99.90;;;;;;4992680;28;20527;-62
2023/07/10 09:47:08;;;;;;;7.10;4.80;;;22.70;99.90;;;;;;4988484;28;20648;-62
2023/07/10 09:49:41;;;;;;;6.17;4.90;;;22.70;99.90;;;;;;4980412;28;20526;-62
2023/07/10 09:52:20;;;;;;;5.33;4.83;;;22.80;99.90;;;;;;4993117;28;20568;-61
2023/07/10 09:54:57;;;;;;;4.97;4.43;;;22.90;99.90;;;;;;4991899;28;20492;-62
2023/07/10 09:57:25;;;;;;;5.37;4.53;;;22.90;99.90;;;;;;4990668;28;20491;-61
2023/07/10 09:59:55;;;;;;;4.27;3.87;;;22.90;99.90;;;;;;4994673;28;20472;-61
2023/07/10 10:02:25;;;;;;;4.37;3.97;;;23.00;99.90;;;;;;4989519;28;20980;-62
2023/07/10 10:04:55;;;;;;;5.00;4.50;;;23.00;99.90;;;;;;4984705;28;20480;-61
2023/07/10 10:07:23;;;;;;;4.80;3.90;;;23.10;99.90;;;;;;4973728;28;20489;-62
2023/07/10 10:10:22;;;;;;;4.10;3.80;;;23.10;99.90;;;;;;4990061;28;20481;-62
2023/07/10 10:12:54;;;;;;;4.77;4.10;;;23.20;99.90;;;;;;4983920;28;20572;-62
2023/07/10 10:15:31;;;;;;;3.23;3.00;;;23.30;99.90;;;;;;4973732;28;20469;-62
2023/07/10 10:18:03;;;;;;;3.90;3.60;;;23.30;99.90;;;;;;4982487;28;20550;-62
2023/07/10 10:20:35;;;;;;;4.00;3.70;;;23.30;99.90;;;;;;4983970;28;20480;-61
2023/07/10 10:23:03;;;;;;;3.83;3.53;;;23.30;99.90;;;;;;4991818;28;20521;-62
2023/07/10 10:25:40;;;;;;;4.10;3.70;;;23.30;99.90;;;;;;4996899;28;20564;-63
2023/07/10 10:28:24;;;;;;;5.63;4.00;;;23.40;99.90;;;;;;4997075;28;20940;-62
2023/07/10 10:30:58;;;;;;;3.80;3.50;;;23.30;99.90;;;;;;4988982;28;20586;-62
2023/07/10 10:33:35;;;;;;;3.90;3.60;;;23.30;99.90;;;;;;4978752;28;20492;-62
2023/07/10 10:36:14;;;;;;;3.93;3.57;;;23.30;99.90;;;;;;4987439;28;20506;-62
2023/07/10 10:38:51;;;;;;;3.90;3.60;;;23.40;99.90;;;;;;4976847;28;20591;-62
2023/07/10 10:41:37;;;;;;;3.47;3.17;;;23.50;99.90;;;;;;4993268;28;20476;-60
2023/07/10 10:44:11;;;;;;;4.60;4.00;;;23.60;99.90;;;;;;4990818;28;20993;-62
2023/07/10 10:46:52;;;;;;;4.53;4.00;;;23.70;99.90;;;;;;4980845;28;20659;-61
2023/07/10 10:49:57;;;;;;;3.87;3.53;;;23.80;99.90;;;;;;4971909;28;20610;-61
2023/07/10 10:52:35;;;;;;;5.70;4.00;;;24.00;99.90;;;;;;4980497;28;20543;-60
2023/07/10 10:55:28;;;;;;;4.50;4.10;;;24.10;99.90;;;;;;4987268;28;20595;-61
2023/07/10 10:58:13;;;;;;;4.00;3.70;;;24.20;99.90;;;;;;4986077;28;20579;-60
2023/07/10 11:00:56;;;;;;;4.60;4.23;;;24.20;99.90;;;;;;4985511;28;20561;-61
2023/07/10 11:03:31;;;;;;;4.23;3.90;;;24.10;99.90;;;;;;4975806;28;20500;-62
2023/07/10 11:06:20;;;;;;;4.07;3.77;;;24.00;99.90;;;;;;4979665;28;20500;-59
2023/07/10 11:08:51;;;;;;;4.43;4.03;;;24.00;99.90;;;;;;4978149;28;20571;-62
2023/07/10 11:11:23;;;;;;;6.10;4.80;;;24.00;99.90;;;;;;4982506;28;20922;-61
2023/07/10 11:13:56;;;;;;;5.07;4.67;;;23.90;99.90;;;;;;4981650;28;20955;-61
2023/07/10 11:16:26;;;;;;;4.77;4.27;;;24.00;99.90;;;;;;4982998;28;20472;-62
2023/07/10 11:18:54;;;;;;;4.60;4.20;;;24.00;99.90;;;;;;4976648;28;20447;-61
2023/07/10 11:21:23;;;;;;;4.40;4.10;;;24.00;99.90;;;;;;4989038;28;20548;-61
2023/07/10 11:23:51;;;;;;;4.73;4.33;;;24.00;99.90;;;;;;4988437;28;20491;-61
2023/07/10 11:26:22;;;;;;;4.60;4.20;;;24.10;99.90;;;;;;4989893;28;20830;-60
2023/07/10 11:28:54;;;;;;;4.70;4.30;;;24.10;99.90;;;;;;4983312;28;20586;-62
2023/07/10 11:31:40;;;;;;;4.30;3.77;;;24.00;99.90;;;;;;4994775;28;21208;-60
2023/07/10 11:34:48;;;;;;;4.30;4.00;;;23.90;99.90;;;;;;4992974;28;20498;-60
2023/07/10 11:37:36;;;;;;;4.10;3.70;;;23.80;99.90;;;;;;4981775;28;20516;-62
2023/07/10 11:40:45;;;;;;;4.10;3.70;;;24.00;99.90;;;;;;4992643;28;20473;-63
2023/07/10 11:43:58;;;;;;;4.30;3.90;;;24.00;99.90;;;;;;4992340;28;20627;-62
2023/07/10 11:46:34;;;;;;;6.30;4.07;;;24.10;99.90;;;;;;4968767;28;20485;-61
2023/07/10 11:49:17;;;;;;;4.03;3.73;;;24.10;99.90;;;;;;4988695;28;20586;-61
2023/07/10 11:52:25;;;;;;;4.50;4.07;;;24.20;99.90;;;;;;4992048;28;20649;-63
2023/07/10 11:55:13;;;;;;;3.53;3.03;;;24.50;99.90;;;;;;4983074;28;20543;-62
2023/07/10 11:57:42;;;;;;;3.83;3.53;;;24.70;99.90;;;;;;4989547;28;20484;-62
2023/07/10 12:00:27;;;;;;;5.57;3.77;;;24.90;99.90;;;;;;4989681;28;20551;-61
2023/07/10 12:03:01;;;;;;;6.07;3.90;;;25.00;99.90;;;;;;4979048;28;21346;-60
2023/07/10 12:05:35;;;;;;;4.17;3.77;;;25.10;99.90;;;;;;4979723;28;20455;-60
2023/07/10 12:08:10;;;;;;;4.83;3.47;;;25.00;99.90;;;;;;4988423;28;20492;-61
2023/07/10 12:10:40;;;;;;;4.10;3.30;;;25.00;99.90;;;;;;4991710;28;20476;-61
2023/07/10 12:13:17;;;;;;;3.60;3.30;;;25.00;99.90;;;;;;4990819;28;20957;-61
2023/07/10 12:15:47;;;;;;;3.50;3.00;;;25.10;99.90;;;;;;4986568;28;20472;-61
2023/07/10 12:18:22;;;;;;;3.60;3.30;;;25.30;99.90;;;;;;4977026;28;20514;-62
2023/07/10 12:20:52;;;;;;;3.90;3.60;;;25.40;99.90;;;;;;4979693;28;20622;-60
2023/07/10 12:23:23;;;;;;;3.03;2.83;;;25.50;99.90;;;;;;4988377;28;20579;-60
2023/07/10 12:25:53;;;;;;;3.43;2.67;;;25.50;99.90;;;;;;4986231;28;21008;-60
2023/07/10 12:28:23;;;;;;;2.80;2.60;;;25.60;99.90;;;;;;4979853;28;20579;-61
2023/07/10 12:30:56;;;;;;;2.83;2.63;;;25.60;99.90;;;;;;4975095;28;20478;-60
2023/07/10 12:33:36;;;;;;;2.90;2.70;;;25.60;99.90;;;;;;4988893;28;21248;-61
2023/07/10 12:36:17;;;;;;;2.97;2.77;;;25.70;99.90;;;;;;4978903;28;20571;-61
2023/07/10 12:38:46;;;;;;;3.43;2.90;;;25.90;99.90;;;;;;4974473;28;20488;-60
2023/07/10 12:41:14;;;;;;;3.03;2.23;;;25.90;99.90;;;;;;4976234;28;20485;-63
2023/07/10 12:43:48;;;;;;;2.70;2.50;;;26.10;99.90;;;;;;4982563;28;20973;-61
2023/07/10 12:46:18;;;;;;;4.63;2.50;;;26.00;99.90;;;;;;4970948;28;20473;-61
2023/07/10 12:48:49;;;;;;;2.43;2.23;;;26.10;99.90;;;;;;4973575;28;20730;-61
2023/07/10 12:51:23;;;;;;;2.87;2.57;;;26.20;99.90;;;;;;4987825;28;20557;-62
2023/07/10 12:53:52;;;;;;;3.20;2.67;;;26.00;99.90;;;;;;4982556;28;20590;-62
2023/07/10 12:56:27;;;;;;;2.60;2.40;;;26.00;99.90;;;;;;4988964;28;20476;-60
2023/07/10 12:58:58;;;;;;;2.70;2.30;;;25.90;99.90;;;;;;4993406;28;20582;-61
2023/07/10 13:01:32;;;;;;;2.80;2.40;;;25.90;99.90;;;;;;4992265;28;20537;-60